createdAt,value
2017-10-02T00:01:27.256Z,15.56
2017-10-02T00:03:55.578Z,15.38
2017-10-02T00:06:23.938Z,15.25
2017-10-02T00:08:52.298Z,14.99
2017-10-02T00:11:20.631Z,15.23
2017-10-02T00:13:48.993Z,15.35
2017-10-02T00:16:17.319Z,15.30
2017-10-02T00:18:45.654Z,14.98
2017-10-02T00:21:14.126Z,15.10
2017-10-02T00:23:42.467Z,15.23
2017-10-02T00:26:10.799Z,14.92
2017-10-02T00:28:39.135Z,14.93
2017-10-02T00:31:07.478Z,15.47
2017-10-02T00:33:35.826Z,15.65
2017-10-02T00:36:04.187Z,15.35
2017-10-02T00:38:32.528Z,15.31
2017-10-02T00:41:00.854Z,15.39
2017-10-02T00:43:29.185Z,15.64
2017-10-02T00:45:57.531Z,15.77
2017-10-02T00:48:25.863Z,15.76
2017-10-02T00:50:54.198Z,16.10
2017-10-02T00:53:22.530Z,16.42
2017-10-02T00:55:50.887Z,16.08
2017-10-02T00:58:19.217Z,16.07
2017-10-02T01:00:47.558Z,16.23
2017-10-02T01:03:15.878Z,16.26
2017-10-02T01:05:44.351Z,16.32
2017-10-02T01:08:12.690Z,16.32
2017-10-02T01:10:41.029Z,15.98
2017-10-02T01:13:09.366Z,16.02
2017-10-02T01:15:37.706Z,15.89
2017-10-02T01:18:06.042Z,15.89
2017-10-02T01:20:34.378Z,16.12
2017-10-02T01:23:02.706Z,15.98
2017-10-02T01:25:31.047Z,16.67
2017-10-02T01:27:59.387Z,16.14
2017-10-02T01:30:27.720Z,16.15
2017-10-02T01:32:56.091Z,16.19
2017-10-02T01:35:24.418Z,16.19
2017-10-02T01:37:52.755Z,16.01
2017-10-02T01:40:21.086Z,16.30
2017-10-02T01:42:49.449Z,16.47
2017-10-02T01:45:17.819Z,16.24
2017-10-02T01:47:46.175Z,16.47
2017-10-02T01:50:14.534Z,16.19
2017-10-02T01:52:42.870Z,16.33
2017-10-02T01:55:11.199Z,16.30
2017-10-02T01:57:39.531Z,16.31
2017-10-02T02:00:07.866Z,15.86
2017-10-02T02:02:36.198Z,15.90
2017-10-02T02:05:04.567Z,16.09
2017-10-02T02:07:32.898Z,16.39
2017-10-02T02:10:01.254Z,16.32
2017-10-02T02:12:29.592Z,16.36
2017-10-02T02:14:57.922Z,15.83
2017-10-02T02:17:26.254Z,16.11
2017-10-02T02:19:54.590Z,16.22
2017-10-02T02:22:22.927Z,15.96
2017-10-02T02:24:51.270Z,16.06
2017-10-02T02:27:19.606Z,15.99
2017-10-02T02:29:48.072Z,16.13
2017-10-02T02:32:16.425Z,16.07
2017-10-02T02:34:44.752Z,16.08
2017-10-02T02:37:13.088Z,16.35
2017-10-02T02:39:41.414Z,16.06
2017-10-02T02:42:09.751Z,16.23
2017-10-02T02:44:38.082Z,15.79
2017-10-02T02:47:06.443Z,16.18
2017-10-02T02:49:34.773Z,16.45
2017-10-02T02:52:03.106Z,15.83
2017-10-02T02:54:31.442Z,16.03
2017-10-02T02:56:59.779Z,16.18
2017-10-02T02:59:28.107Z,16.11
2017-10-02T03:01:56.479Z,16.16
2017-10-02T03:04:24.810Z,16.13
2017-10-02T03:06:53.142Z,15.88
2017-10-02T03:09:21.509Z,15.87
2017-10-02T03:11:49.849Z,16.01
2017-10-02T03:14:18.186Z,16.23
2017-10-02T03:16:46.520Z,16.31
2017-10-02T03:19:14.855Z,16.29
2017-10-02T03:21:43.187Z,16.14
2017-10-02T03:24:11.699Z,16.20
2017-10-02T03:26:40.040Z,16.35
2017-10-02T03:29:08.370Z,16.36
2017-10-02T03:31:36.706Z,16.36
2017-10-02T03:34:05.035Z,16.46
2017-10-02T03:36:33.500Z,16.52
2017-10-02T03:39:01.839Z,16.62
2017-10-02T03:41:30.165Z,16.42
2017-10-02T03:43:58.498Z,16.57
2017-10-02T03:46:26.826Z,16.41
2017-10-02T03:48:55.158Z,16.53
2017-10-02T03:51:23.490Z,16.36
2017-10-02T03:53:51.820Z,16.28
2017-10-02T03:56:20.626Z,16.49
2017-10-02T03:58:48.967Z,16.53
2017-10-02T04:01:17.294Z,16.46
2017-10-02T04:03:45.626Z,16.49
2017-10-02T04:06:13.995Z,16.19
2017-10-02T04:08:42.325Z,16.29
2017-10-02T04:11:10.663Z,16.02
2017-10-02T04:13:38.997Z,15.94
2017-10-02T04:16:07.340Z,15.77
2017-10-02T04:18:35.702Z,15.75
2017-10-02T04:21:04.046Z,15.96
2017-10-02T04:23:32.386Z,15.77
2017-10-02T04:26:00.745Z,15.78
2017-10-02T04:28:29.071Z,15.73
2017-10-02T04:30:57.405Z,15.79
2017-10-02T04:33:25.737Z,15.85
2017-10-02T04:35:54.067Z,15.74
2017-10-02T04:38:22.402Z,15.77
2017-10-02T04:40:50.730Z,15.90
2017-10-02T04:43:19.103Z,15.65
2017-10-02T04:45:47.434Z,15.65
2017-10-02T04:48:15.770Z,15.78
2017-10-02T04:50:44.110Z,16.02
2017-10-02T04:53:12.521Z,15.71
2017-10-02T04:55:40.906Z,15.53
2017-10-02T04:58:09.247Z,15.65
2017-10-02T05:00:37.586Z,16.02
2017-10-02T05:03:05.940Z,15.86
2017-10-02T05:05:34.276Z,15.97
2017-10-02T05:08:02.811Z,16.02
2017-10-02T05:10:31.146Z,16.32
2017-10-02T05:12:59.470Z,16.49
2017-10-02T05:15:27.815Z,16.19
2017-10-02T05:17:56.154Z,16.06
2017-10-02T05:20:24.486Z,16.18
2017-10-02T05:22:52.834Z,16.14
2017-10-02T05:25:21.166Z,16.17
2017-10-02T05:27:49.544Z,15.90
2017-10-02T05:30:17.877Z,16.44
2017-10-02T05:32:46.241Z,16.54
2017-10-02T05:35:14.726Z,16.56
2017-10-02T05:37:43.061Z,16.33
2017-10-02T05:40:11.395Z,16.48
2017-10-02T05:42:39.775Z,16.72
2017-10-02T05:45:10.823Z,16.44
2017-10-02T05:47:39.155Z,16.81
2017-10-02T05:50:07.487Z,16.64
2017-10-02T05:52:35.865Z,16.70
2017-10-02T05:55:04.194Z,16.76
2017-10-02T05:57:32.570Z,16.56
2017-10-02T06:00:00.902Z,16.45
2017-10-02T06:02:29.234Z,16.90
2017-10-02T06:04:57.707Z,16.93
2017-10-02T06:07:26.038Z,17.09
2017-10-02T06:09:54.376Z,16.84
2017-10-02T06:12:22.738Z,16.76
2017-10-02T06:14:51.070Z,17.17
2017-10-02T06:17:19.402Z,16.88
2017-10-02T06:19:47.763Z,17.28
2017-10-02T06:22:16.102Z,17.26
2017-10-02T06:24:44.498Z,17.39
2017-10-02T06:27:12.830Z,17.52
2017-10-02T06:29:41.169Z,17.69
2017-10-02T06:32:09.523Z,17.44
2017-10-02T06:34:37.890Z,17.37
2017-10-02T06:37:06.214Z,17.40
2017-10-02T06:39:34.577Z,17.47
2017-10-02T06:42:02.910Z,17.44
2017-10-02T06:44:31.274Z,17.37
2017-10-02T06:46:59.646Z,17.21
2017-10-02T06:49:28.117Z,17.46
2017-10-02T06:51:56.450Z,16.96
2017-10-02T06:54:24.782Z,17.04
2017-10-02T06:56:53.145Z,17.22
2017-10-02T06:59:21.486Z,17.16
2017-10-02T07:01:49.847Z,17.00
2017-10-02T07:04:18.198Z,16.90
2017-10-02T07:06:46.539Z,17.38
2017-10-02T07:09:14.893Z,16.95
2017-10-02T07:11:43.258Z,16.93
2017-10-02T07:14:11.629Z,16.89
2017-10-02T07:16:39.962Z,17.07
2017-10-02T07:19:08.304Z,17.09
2017-10-02T07:21:36.642Z,17.87
2017-10-02T07:24:04.974Z,17.45
2017-10-02T07:26:33.334Z,17.83
2017-10-02T07:29:01.683Z,17.57
2017-10-02T07:31:30.095Z,16.67
2017-10-02T07:33:58.427Z,16.60
2017-10-02T07:36:26.770Z,16.62
2017-10-02T07:38:55.102Z,16.67
2017-10-02T07:41:23.562Z,16.65
2017-10-02T07:43:51.898Z,16.62
2017-10-02T07:46:20.229Z,16.56
2017-10-02T07:48:48.595Z,16.75
2017-10-02T07:51:16.922Z,16.86
2017-10-02T07:53:45.289Z,17.13
2017-10-02T07:56:13.656Z,16.99
2017-10-02T07:58:41.986Z,16.99
2017-10-02T08:01:10.364Z,16.56
2017-10-02T08:03:38.691Z,17.04
2017-10-02T08:06:07.020Z,16.68
2017-10-02T08:08:35.383Z,16.74
2017-10-02T08:11:03.717Z,16.98
2017-10-02T08:13:32.189Z,17.20
2017-10-02T08:16:00.515Z,17.29
2017-10-02T08:18:28.851Z,16.76
2017-10-02T08:20:57.194Z,16.60
2017-10-02T08:23:25.559Z,16.91
2017-10-02T08:25:53.926Z,17.11
2017-10-02T08:28:22.263Z,17.06
2017-10-02T08:30:50.622Z,16.95
2017-10-02T08:33:18.945Z,17.10
2017-10-02T08:35:47.310Z,16.97
2017-10-02T08:38:15.646Z,17.26
2017-10-02T08:40:44.015Z,17.16
2017-10-02T08:43:12.347Z,17.16
2017-10-02T08:45:40.707Z,17.27
2017-10-02T08:48:09.046Z,16.96
2017-10-02T08:50:37.422Z,17.45
2017-10-02T08:53:05.752Z,17.14
2017-10-02T08:55:34.145Z,17.67
2017-10-02T08:58:02.792Z,17.07
2017-10-02T09:00:31.129Z,17.34
2017-10-02T09:02:59.453Z,17.53
2017-10-02T09:05:27.782Z,17.29
2017-10-02T09:07:56.143Z,17.30
2017-10-02T09:10:24.475Z,17.29
2017-10-02T09:12:52.938Z,17.40
2017-10-02T09:15:21.275Z,17.39
2017-10-02T09:17:49.606Z,17.21
2017-10-02T09:20:17.940Z,17.27
2017-10-02T09:22:46.274Z,17.02
2017-10-02T09:25:14.634Z,17.13
2017-10-02T09:27:42.968Z,17.66
2017-10-02T09:30:11.429Z,17.44
2017-10-02T09:32:39.777Z,17.39
2017-10-02T09:35:08.110Z,17.33
2017-10-02T09:37:36.478Z,16.97
2017-10-02T09:40:04.807Z,17.22
2017-10-02T09:42:33.275Z,17.25
2017-10-02T09:45:01.798Z,17.22
2017-10-02T09:47:30.135Z,16.90
2017-10-02T09:49:58.494Z,17.43
2017-10-02T09:52:26.837Z,17.07
2017-10-02T09:54:55.213Z,16.95
2017-10-02T09:57:23.546Z,17.21
2017-10-02T09:59:51.877Z,17.53
2017-10-02T10:02:20.354Z,17.45
2017-10-02T10:04:48.678Z,17.62
2017-10-02T10:07:17.031Z,17.07
2017-10-02T10:09:45.361Z,17.45
2017-10-02T10:12:13.702Z,17.61
2017-10-02T10:14:42.066Z,17.08
2017-10-02T10:17:10.394Z,17.35
2017-10-02T10:19:38.723Z,17.16
2017-10-02T10:22:07.053Z,17.37
2017-10-02T10:24:35.694Z,17.46
2017-10-02T10:27:04.103Z,17.57
2017-10-02T10:29:32.430Z,17.51
2017-10-02T10:32:00.779Z,17.51
2017-10-02T10:34:29.097Z,17.46
2017-10-02T10:36:57.481Z,17.52
2017-10-02T10:39:25.813Z,17.47
2017-10-02T10:41:54.147Z,17.24
2017-10-02T10:44:22.953Z,17.47
2017-10-02T10:46:51.319Z,17.67
2017-10-02T10:49:19.677Z,17.65
2017-10-02T10:51:48.049Z,17.25
2017-10-02T10:54:16.399Z,17.62
2017-10-02T10:56:44.764Z,17.49
2017-10-02T10:59:13.125Z,17.58
2017-10-02T11:01:41.502Z,18.03
2017-10-02T11:04:09.883Z,17.69
2017-10-02T11:06:38.621Z,17.68
2017-10-02T11:09:06.962Z,17.60
2017-10-02T11:11:35.419Z,17.93
2017-10-02T11:14:03.757Z,17.66
2017-10-02T11:16:32.096Z,17.90
2017-10-02T11:19:00.434Z,18.08
2017-10-02T11:21:28.798Z,17.95
2017-10-02T11:23:57.179Z,18.17
2017-10-02T11:26:25.530Z,17.88
2017-10-02T11:28:53.897Z,17.86
2017-10-02T11:31:22.241Z,18.03
2017-10-02T11:33:50.686Z,17.90
2017-10-02T11:36:19.018Z,17.89
2017-10-02T11:38:47.443Z,17.87
2017-10-02T11:41:15.770Z,18.35
2017-10-02T11:43:44.102Z,18.05
2017-10-02T11:46:12.443Z,18.12
2017-10-02T11:48:40.802Z,17.94
2017-10-02T11:51:09.138Z,18.34
2017-10-02T11:53:37.510Z,18.18
2017-10-02T11:56:05.867Z,18.23
2017-10-02T11:58:34.203Z,18.64
2017-10-02T12:01:02.571Z,18.17
2017-10-02T12:03:30.930Z,18.21
2017-10-02T12:05:59.293Z,18.18
2017-10-02T12:08:27.619Z,18.13
2017-10-02T12:10:55.977Z,18.09
2017-10-02T12:13:24.306Z,17.87
2017-10-02T12:15:52.665Z,18.10
2017-10-02T12:18:21.061Z,17.96
2017-10-02T12:20:49.738Z,18.33
2017-10-02T12:23:18.067Z,18.04
2017-10-02T12:25:46.395Z,18.08
2017-10-02T12:28:14.854Z,18.11
2017-10-02T12:30:43.186Z,18.15
2017-10-02T12:33:11.517Z,18.38
2017-10-02T12:35:39.850Z,19.16
2017-10-02T12:38:08.186Z,19.18
2017-10-02T12:40:36.561Z,19.35
2017-10-02T12:43:04.893Z,19.01
2017-10-02T12:45:33.269Z,19.06
2017-10-02T12:48:01.594Z,18.65
2017-10-02T12:50:29.927Z,18.75
2017-10-02T12:52:58.262Z,19.12
2017-10-02T12:55:26.591Z,19.40
2017-10-02T12:57:54.924Z,19.62
2017-10-02T13:00:23.255Z,19.78
2017-10-02T13:02:51.623Z,19.34
2017-10-02T13:05:19.955Z,19.63
2017-10-02T13:07:48.318Z,19.83
2017-10-02T13:10:16.653Z,19.44
2017-10-02T13:12:44.994Z,19.27
2017-10-02T13:15:13.570Z,19.25
2017-10-02T13:17:41.938Z,19.11
2017-10-02T13:20:10.406Z,19.16
2017-10-02T13:22:38.751Z,19.02
2017-10-02T13:25:07.091Z,19.43
2017-10-02T13:27:35.498Z,19.42
2017-10-02T13:30:03.840Z,19.22
2017-10-02T13:32:32.370Z,19.24
2017-10-02T13:35:00.718Z,19.25
2017-10-02T13:37:29.085Z,19.06
2017-10-02T13:39:57.453Z,19.21
2017-10-02T13:42:25.802Z,18.92
2017-10-02T13:44:54.166Z,19.65
2017-10-02T13:47:22.510Z,19.51
2017-10-02T13:49:50.985Z,20.48
2017-10-02T13:52:19.326Z,19.80
2017-10-02T13:54:47.662Z,19.69
2017-10-02T13:57:16.034Z,19.62
2017-10-02T13:59:44.378Z,19.24
2017-10-02T14:02:12.714Z,19.05
2017-10-02T14:04:41.054Z,19.19
2017-10-02T14:07:09.390Z,18.96
2017-10-02T14:09:37.762Z,18.85
2017-10-02T14:12:06.108Z,19.51
2017-10-02T14:14:34.538Z,19.30
2017-10-02T14:17:02.880Z,18.94
2017-10-02T14:19:31.242Z,18.94
2017-10-02T14:21:59.583Z,19.22
2017-10-02T14:24:27.931Z,19.18
2017-10-02T14:26:57.126Z,19.55
2017-10-02T14:29:25.462Z,19.10
2017-10-02T14:31:53.935Z,18.85
2017-10-02T14:34:22.274Z,19.10
2017-10-02T14:36:50.619Z,19.28
2017-10-02T14:39:18.958Z,19.23
2017-10-02T14:41:47.298Z,19.09
2017-10-02T14:44:16.445Z,19.25
2017-10-02T14:46:44.784Z,18.50
2017-10-02T14:49:13.163Z,18.38
2017-10-02T14:51:41.507Z,18.55
2017-10-02T14:54:09.846Z,18.39
2017-10-02T14:56:38.199Z,18.52
2017-10-02T14:59:06.534Z,18.64
2017-10-02T15:01:35.006Z,18.56
2017-10-02T15:04:03.354Z,18.67
2017-10-02T15:06:31.694Z,19.19
2017-10-02T15:09:00.067Z,18.91
2017-10-02T15:11:28.408Z,18.60
2017-10-02T15:13:56.877Z,18.56
2017-10-02T15:16:25.217Z,18.33
2017-10-02T15:18:53.554Z,18.14
2017-10-02T15:21:21.896Z,18.00
2017-10-02T15:23:50.225Z,17.90
2017-10-02T15:26:18.607Z,18.09
2017-10-02T15:28:46.956Z,18.23
2017-10-02T15:31:15.957Z,18.15
2017-10-02T15:33:44.286Z,18.47
2017-10-02T15:36:12.659Z,18.19
2017-10-02T15:38:40.990Z,18.27
2017-10-02T15:41:09.577Z,18.55
2017-10-02T15:43:37.946Z,18.42
2017-10-02T15:46:06.295Z,17.99
2017-10-02T15:48:35.374Z,18.25
2017-10-02T15:51:06.942Z,18.32
2017-10-02T15:53:49.261Z,18.14
2017-10-02T15:56:18.974Z,18.10
2017-10-02T15:58:47.732Z,18.53
2017-10-02T16:01:16.520Z,18.27
2017-10-02T16:03:46.347Z,18.53
2017-10-02T16:06:14.908Z,18.42
2017-10-02T16:08:43.250Z,18.04
2017-10-02T16:11:12.524Z,18.02
2017-10-02T16:13:41.769Z,17.74
2017-10-02T16:16:11.062Z,17.79
2017-10-02T16:18:41.085Z,17.71
2017-10-02T16:21:11.175Z,17.76
2017-10-02T16:23:39.914Z,17.83
2017-10-02T16:26:08.704Z,17.84
2017-10-02T16:28:37.163Z,17.79
2017-10-02T16:31:05.782Z,17.54
2017-10-02T16:33:35.031Z,17.69
2017-10-02T16:36:03.435Z,17.56
2017-10-02T16:38:31.778Z,17.52
2017-10-02T16:41:00.164Z,17.36
2017-10-02T16:43:28.494Z,17.47
2017-10-02T16:45:56.830Z,17.29
2017-10-02T16:48:25.165Z,17.52
2017-10-02T16:50:53.776Z,17.64
2017-10-02T16:53:22.158Z,17.50
2017-10-02T16:55:50.498Z,17.53
2017-10-02T16:58:18.863Z,17.44
2017-10-02T17:00:47.211Z,17.38
2017-10-02T17:03:15.547Z,17.29
2017-10-02T17:05:44.030Z,17.54
2017-10-02T17:08:12.413Z,17.75
2017-10-02T17:10:40.897Z,17.30
2017-10-02T17:13:09.241Z,17.50
2017-10-02T17:15:37.618Z,18.04
2017-10-02T17:18:05.971Z,17.45
2017-10-02T17:20:37.543Z,17.80
2017-10-02T17:23:05.879Z,17.59
2017-10-02T17:25:34.242Z,17.74
2017-10-02T17:28:02.601Z,17.47
2017-10-02T17:30:30.941Z,17.38
2017-10-02T17:32:59.279Z,17.35
2017-10-02T17:35:27.832Z,17.36
2017-10-02T17:37:56.220Z,17.29
2017-10-02T17:40:24.587Z,17.36
2017-10-02T17:42:55.018Z,17.59
2017-10-02T17:45:23.436Z,17.28
2017-10-02T17:47:51.771Z,17.07
2017-10-02T17:50:20.115Z,17.45
2017-10-02T17:52:48.765Z,17.44
2017-10-02T17:55:17.191Z,17.27
2017-10-02T17:57:46.249Z,17.70
2017-10-02T18:00:15.470Z,17.32
2017-10-02T18:02:44.366Z,17.24
2017-10-02T18:05:12.798Z,17.07
2017-10-02T18:07:41.441Z,16.91
2017-10-02T18:10:09.991Z,17.65
2017-10-02T18:12:38.435Z,17.28
2017-10-02T18:15:07.104Z,17.11
2017-10-02T18:17:35.482Z,17.22
2017-10-02T18:20:03.988Z,17.19
2017-10-02T18:22:32.950Z,17.13
2017-10-02T18:25:01.812Z,16.96
2017-10-02T18:27:30.218Z,17.03
2017-10-02T18:29:58.581Z,17.20
2017-10-02T18:32:26.986Z,16.98
2017-10-02T18:34:55.551Z,16.92
2017-10-02T18:37:23.943Z,16.83
2017-10-02T18:39:52.288Z,17.04
2017-10-02T18:42:20.667Z,16.74
2017-10-02T18:44:49.069Z,17.06
2017-10-02T18:47:17.523Z,16.96
2017-10-02T18:49:47.334Z,16.87
2017-10-02T18:52:15.734Z,16.84
2017-10-02T18:54:44.074Z,17.11
2017-10-02T18:57:12.466Z,17.06
2017-10-02T18:59:40.830Z,17.02
2017-10-02T19:02:09.209Z,16.83
2017-10-02T19:04:37.580Z,16.87
2017-10-02T19:07:05.988Z,16.70
2017-10-02T19:09:34.364Z,16.75
2017-10-02T19:12:02.854Z,16.63
2017-10-02T19:14:31.912Z,16.71
2017-10-02T19:17:00.274Z,16.54
2017-10-02T19:19:28.632Z,16.83
2017-10-02T19:21:57.208Z,16.85
2017-10-02T19:24:25.571Z,16.47
2017-10-02T19:26:53.952Z,16.69
2017-10-02T19:29:22.298Z,16.83
2017-10-02T19:32:07.715Z,16.77
2017-10-02T19:34:41.037Z,16.73
2017-10-02T19:37:31.146Z,16.61
2017-10-02T19:40:03.394Z,16.42
2017-10-02T19:42:45.646Z,16.69
2017-10-02T19:45:18.858Z,16.80
2017-10-02T19:48:25.853Z,16.94
2017-10-02T19:51:00.067Z,16.67
2017-10-02T19:53:30.916Z,16.62
2017-10-02T19:56:07.990Z,17.05
2017-10-02T19:58:37.367Z,16.83
2017-10-02T20:01:05.762Z,16.49
2017-10-02T20:03:34.124Z,16.98
2017-10-02T20:06:02.543Z,16.63
2017-10-02T20:08:30.912Z,16.76
2017-10-02T20:10:59.304Z,16.79
2017-10-02T20:13:27.835Z,16.93
2017-10-02T20:16:02.731Z,16.82
2017-10-02T20:18:31.110Z,16.88
2017-10-02T20:20:59.497Z,16.66
2017-10-02T20:23:27.942Z,16.69
2017-10-02T20:25:56.353Z,16.44
2017-10-02T20:28:24.795Z,16.39
2017-10-02T20:30:53.175Z,16.64
2017-10-02T20:33:21.588Z,16.54
2017-10-02T20:35:49.959Z,16.94
2017-10-02T20:38:18.343Z,16.52
2017-10-02T20:40:46.765Z,16.31
2017-10-02T20:43:15.133Z,16.28
2017-10-02T20:45:43.502Z,16.36
2017-10-02T20:48:11.903Z,16.14
2017-10-02T20:50:40.293Z,16.08
2017-10-02T20:53:08.715Z,16.39
2017-10-02T20:55:37.250Z,16.20
2017-10-02T20:58:05.650Z,16.19
2017-10-02T21:00:34.011Z,15.78
2017-10-02T21:03:02.456Z,15.93
2017-10-02T21:05:30.818Z,16.24
2017-10-02T21:07:59.312Z,16.12
2017-10-02T21:10:27.695Z,16.14
2017-10-02T21:12:56.061Z,16.08
2017-10-02T21:15:24.423Z,15.77
2017-10-02T21:17:52.815Z,15.89
2017-10-02T21:20:21.187Z,16.31
2017-10-02T21:22:49.593Z,16.23
2017-10-02T21:25:17.946Z,16.15
2017-10-02T21:27:46.334Z,16.24
2017-10-02T21:30:14.739Z,16.10
2017-10-02T21:32:43.110Z,16.19
2017-10-02T21:35:11.471Z,16.44
2017-10-02T21:37:39.840Z,16.59
2017-10-02T21:40:08.197Z,16.82
2017-10-02T21:42:36.603Z,16.79
2017-10-02T21:45:04.982Z,16.24
2017-10-02T21:47:33.389Z,16.55
2017-10-02T21:50:01.855Z,16.07
2017-10-02T21:52:30.235Z,16.01
2017-10-02T21:54:58.622Z,16.03
2017-10-02T21:57:27.121Z,16.02
2017-10-02T21:59:56.165Z,15.82
2017-10-02T22:02:24.519Z,16.09
2017-10-02T22:04:52.924Z,16.05
2017-10-02T22:07:21.296Z,16.01
2017-10-02T22:09:49.776Z,15.98
2017-10-02T22:12:18.245Z,15.65
2017-10-02T22:14:46.607Z,15.69
2017-10-02T22:17:14.967Z,15.63
2017-10-02T22:19:43.334Z,15.75
2017-10-02T22:22:11.841Z,15.73
2017-10-02T22:24:40.201Z,15.51
2017-10-02T22:27:08.586Z,15.71
2017-10-02T22:29:36.955Z,15.94
2017-10-02T22:32:05.339Z,15.65
2017-10-02T22:34:33.831Z,15.52
2017-10-02T22:37:02.198Z,15.48
2017-10-02T22:39:30.559Z,15.48
2017-10-02T22:41:58.919Z,15.39
2017-10-02T22:44:27.413Z,15.52
2017-10-02T22:46:55.768Z,15.39
2017-10-02T22:49:24.149Z,14.84
2017-10-02T22:51:52.504Z,14.95
2017-10-02T22:54:20.906Z,15.09
2017-10-02T22:56:49.302Z,15.01
2017-10-02T22:59:17.669Z,14.99
2017-10-02T23:01:46.030Z,14.96
2017-10-02T23:04:14.413Z,14.55
2017-10-02T23:06:42.771Z,14.95
2017-10-02T23:09:11.289Z,15.28
2017-10-02T23:11:39.642Z,14.93
2017-10-02T23:14:08.007Z,15.12
2017-10-02T23:16:36.357Z,14.82
2017-10-02T23:19:04.704Z,15.00
2017-10-02T23:21:33.080Z,14.81
2017-10-02T23:24:01.435Z,14.75
2017-10-02T23:26:29.820Z,14.60
2017-10-02T23:28:58.180Z,15.45
2017-10-02T23:31:26.568Z,15.12
2017-10-02T23:33:54.927Z,15.45
2017-10-02T23:36:23.285Z,15.82
2017-10-02T23:38:51.655Z,15.11
2017-10-02T23:41:20.011Z,14.49
2017-10-02T23:43:48.499Z,14.91
2017-10-02T23:46:16.851Z,14.74
2017-10-02T23:48:45.203Z,14.69
2017-10-02T23:51:13.567Z,15.10
2017-10-02T23:53:41.969Z,14.88
2017-10-02T23:56:10.316Z,14.92
2017-10-02T23:58:38.700Z,14.92
